sensor_id;sensor_type;location;lat;lon;timestamp;P1;durP1;ratioP1;P2;durP2;ratioP2
16731;SDS011;8484;50.904;9.192;2023-04-25T00:00:32;12.70;;;11.73;;
16731;SDS011;8484;50.904;9.192;2023-04-25T00:02:59;13.10;;;12.20;;
16731;SDS011;8484;50.904;9.192;2023-04-25T00:05:26;13.20;;;12.30;;
16731;SDS011;8484;50.904;9.192;2023-04-25T00:07:54;13.77;;;12.87;;
16731;SDS011;8484;50.904;9.192;2023-04-25T00:10:23;13.10;;;12.17;;
16731;SDS011;8484;50.904;9.192;2023-04-25T00:12:49;13.50;;;12.50;;
16731;SDS011;8484;50.904;9.192;2023-04-25T00:15:16;14.37;;;13.37;;
16731;SDS011;8484;50.904;9.192;2023-04-25T00:17:43;13.17;;;12.07;;
16731;SDS011;8484;50.904;9.192;2023-04-25T00:20:11;12.47;;;11.60;;
16731;SDS011;8484;50.904;9.192;2023-04-25T00:22:42;12.43;;;11.57;;
16731;SDS011;8484;50.904;9.192;2023-04-25T00:25:09;12.10;;;11.30;;
16731;SDS011;8484;50.904;9.192;2023-04-25T00:27:37;11.40;;;10.70;;
16731;SDS011;8484;50.904;9.192;2023-04-25T00:30:04;12.00;;;11.20;;
16731;SDS011;8484;50.904;9.192;2023-04-25T00:32:32;11.57;;;10.77;;
16731;SDS011;8484;50.904;9.192;2023-04-25T00:34:59;11.80;;;10.90;;
16731;SDS011;8484;50.904;9.192;2023-04-25T00:37:26;12.03;;;11.20;;
16731;SDS011;8484;50.904;9.192;2023-04-25T00:39:52;11.77;;;10.97;;
16731;SDS011;8484;50.904;9.192;2023-04-25T00:42:21;11.30;;;10.60;;
16731;SDS011;8484;50.904;9.192;2023-04-25T00:44:49;11.77;;;10.93;;
16731;SDS011;8484;50.904;9.192;2023-04-25T00:47:17;11.73;;;11.03;;
16731;SDS011;8484;50.904;9.192;2023-04-25T00:49:44;11.50;;;10.80;;
16731;SDS011;8484;50.904;9.192;2023-04-25T00:52:11;12.57;;;11.57;;
16731;SDS011;8484;50.904;9.192;2023-04-25T00:54:38;12.00;;;11.20;;
16731;SDS011;8484;50.904;9.192;2023-04-25T00:57:05;11.70;;;11.00;;
16731;SDS011;8484;50.904;9.192;2023-04-25T00:59:33;11.67;;;10.87;;
16731;SDS011;8484;50.904;9.192;2023-04-25T01:02:01;11.97;;;11.17;;
16731;SDS011;8484;50.904;9.192;2023-04-25T01:04:28;11.90;;;11.00;;
16731;SDS011;8484;50.904;9.192;2023-04-25T01:06:55;12.67;;;11.77;;
16731;SDS011;8484;50.904;9.192;2023-04-25T01:09:26;12.40;;;11.60;;
16731;SDS011;8484;50.904;9.192;2023-04-25T01:11:53;12.90;;;12.10;;
16731;SDS011;8484;50.904;9.192;2023-04-25T01:14:21;12.00;;;11.20;;
16731;SDS011;8484;50.904;9.192;2023-04-25T01:16:49;13.50;;;12.47;;
16731;SDS011;8484;50.904;9.192;2023-04-25T01:19:19;13.40;;;12.40;;
16731;SDS011;8484;50.904;9.192;2023-04-25T01:21:47;13.70;;;12.80;;
16731;SDS011;8484;50.904;9.192;2023-04-25T01:24:14;13.20;;;12.30;;
16731;SDS011;8484;50.904;9.192;2023-04-25T01:26:41;13.77;;;12.87;;
16731;SDS011;8484;50.904;9.192;2023-04-25T01:29:14;13.80;;;12.80;;
16731;SDS011;8484;50.904;9.192;2023-04-25T01:31:41;14.30;;;13.23;;
16731;SDS011;8484;50.904;9.192;2023-04-25T01:34:09;14.93;;;13.83;;
16731;SDS011;8484;50.904;9.192;2023-04-25T01:36:36;15.47;;;14.17;;
16731;SDS011;8484;50.904;9.192;2023-04-25T01:39:04;15.07;;;13.80;;
16731;SDS011;8484;50.904;9.192;2023-04-25T01:41:31;15.13;;;14.07;;
16731;SDS011;8484;50.904;9.192;2023-04-25T01:44:00;15.40;;;14.23;;
16731;SDS011;8484;50.904;9.192;2023-04-25T01:46:27;15.90;;;14.70;;
16731;SDS011;8484;50.904;9.192;2023-04-25T01:48:56;15.43;;;14.33;;
16731;SDS011;8484;50.904;9.192;2023-04-25T01:51:24;15.67;;;14.27;;
16731;SDS011;8484;50.904;9.192;2023-04-25T01:53:51;15.93;;;14.73;;
16731;SDS011;8484;50.904;9.192;2023-04-25T01:56:20;15.13;;;14.03;;
16731;SDS011;8484;50.904;9.192;2023-04-25T01:58:47;15.57;;;14.47;;
16731;SDS011;8484;50.904;9.192;2023-04-25T02:01:14;15.27;;;14.27;;
16731;SDS011;8484;50.904;9.192;2023-04-25T02:03:41;15.43;;;14.43;;
16731;SDS011;8484;50.904;9.192;2023-04-25T02:06:09;15.10;;;14.10;;
16731;SDS011;8484;50.904;9.192;2023-04-25T02:08:36;15.47;;;14.20;;
16731;SDS011;8484;50.904;9.192;2023-04-25T02:11:03;15.97;;;14.67;;
16731;SDS011;8484;50.904;9.192;2023-04-25T02:13:31;15.30;;;14.17;;
16731;SDS011;8484;50.904;9.192;2023-04-25T02:15:58;15.40;;;14.30;;
16731;SDS011;8484;50.904;9.192;2023-04-25T02:18:25;15.87;;;14.80;;
16731;SDS011;8484;50.904;9.192;2023-04-25T02:20:52;16.20;;;14.90;;
16731;SDS011;8484;50.904;9.192;2023-04-25T02:23:19;14.90;;;13.90;;
16731;SDS011;8484;50.904;9.192;2023-04-25T02:25:46;14.80;;;13.63;;
16731;SDS011;8484;50.904;9.192;2023-04-25T02:28:12;15.27;;;14.07;;
16731;SDS011;8484;50.904;9.192;2023-04-25T02:30:41;15.80;;;14.60;;
16731;SDS011;8484;50.904;9.192;2023-04-25T02:33:08;15.57;;;14.27;;
16731;SDS011;8484;50.904;9.192;2023-04-25T02:35:35;15.47;;;14.23;;
16731;SDS011;8484;50.904;9.192;2023-04-25T02:38:02;15.13;;;14.13;;
16731;SDS011;8484;50.904;9.192;2023-04-25T02:40:29;15.83;;;14.47;;
16731;SDS011;8484;50.904;9.192;2023-04-25T02:42:56;14.93;;;13.87;;
16731;SDS011;8484;50.904;9.192;2023-04-25T02:45:23;15.07;;;13.87;;
16731;SDS011;8484;50.904;9.192;2023-04-25T02:47:51;16.07;;;14.77;;
16731;SDS011;8484;50.904;9.192;2023-04-25T02:50:18;15.57;;;14.40;;
16731;SDS011;8484;50.904;9.192;2023-04-25T02:52:45;16.10;;;14.70;;
16731;SDS011;8484;50.904;9.192;2023-04-25T02:55:12;16.70;;;15.30;;
16731;SDS011;8484;50.904;9.192;2023-04-25T02:57:39;14.77;;;13.87;;
16731;SDS011;8484;50.904;9.192;2023-04-25T03:00:07;16.47;;;15.20;;
16731;SDS011;8484;50.904;9.192;2023-04-25T03:02:36;16.53;;;15.43;;
16731;SDS011;8484;50.904;9.192;2023-04-25T03:05:05;17.33;;;15.93;;
16731;SDS011;8484;50.904;9.192;2023-04-25T03:07:32;17.20;;;16.00;;
16731;SDS011;8484;50.904;9.192;2023-04-25T03:09:59;17.33;;;16.00;;
16731;SDS011;8484;50.904;9.192;2023-04-25T03:12:26;17.33;;;15.73;;
16731;SDS011;8484;50.904;9.192;2023-04-25T03:14:53;17.30;;;15.97;;
16731;SDS011;8484;50.904;9.192;2023-04-25T03:17:20;17.60;;;16.30;;
16731;SDS011;8484;50.904;9.192;2023-04-25T03:19:47;17.00;;;15.77;;
16731;SDS011;8484;50.904;9.192;2023-04-25T03:22:15;17.27;;;15.70;;
16731;SDS011;8484;50.904;9.192;2023-04-25T03:24:42;17.10;;;15.90;;
16731;SDS011;8484;50.904;9.192;2023-04-25T03:27:10;16.10;;;15.00;;
16731;SDS011;8484;50.904;9.192;2023-04-25T03:29:36;16.03;;;14.83;;
16731;SDS011;8484;50.904;9.192;2023-04-25T03:32:04;15.83;;;14.47;;
16731;SDS011;8484;50.904;9.192;2023-04-25T03:34:31;16.37;;;15.00;;
16731;SDS011;8484;50.904;9.192;2023-04-25T03:36:57;16.80;;;15.40;;
16731;SDS011;8484;50.904;9.192;2023-04-25T03:39:27;15.37;;;14.27;;
16731;SDS011;8484;50.904;9.192;2023-04-25T03:41:54;15.77;;;14.67;;
16731;SDS011;8484;50.904;9.192;2023-04-25T03:44:21;16.13;;;14.83;;
16731;SDS011;8484;50.904;9.192;2023-04-25T03:46:49;15.93;;;14.60;;
16731;SDS011;8484;50.904;9.192;2023-04-25T03:49:16;16.13;;;14.80;;
16731;SDS011;8484;50.904;9.192;2023-04-25T03:51:43;16.13;;;14.83;;
16731;SDS011;8484;50.904;9.192;2023-04-25T03:54:10;15.50;;;14.40;;
16731;SDS011;8484;50.904;9.192;2023-04-25T03:56:38;15.90;;;14.63;;
16731;SDS011;8484;50.904;9.192;2023-04-25T03:59:05;16.40;;;14.97;;
16731;SDS011;8484;50.904;9.192;2023-04-25T04:01:32;15.37;;;14.27;;
16731;SDS011;8484;50.904;9.192;2023-04-25T04:04:00;16.17;;;14.73;;
16731;SDS011;8484;50.904;9.192;2023-04-25T04:06:27;15.60;;;14.50;;
16731;SDS011;8484;50.904;9.192;2023-04-25T04:08:57;15.20;;;14.00;;
16731;SDS011;8484;50.904;9.192;2023-04-25T04:11:24;15.83;;;14.63;;
16731;SDS011;8484;50.904;9.192;2023-04-25T04:13:52;16.03;;;14.63;;
16731;SDS011;8484;50.904;9.192;2023-04-25T04:16:19;15.87;;;14.67;;
16731;SDS011;8484;50.904;9.192;2023-04-25T04:18:46;15.23;;;14.10;;
16731;SDS011;8484;50.904;9.192;2023-04-25T04:21:13;15.73;;;14.63;;
16731;SDS011;8484;50.904;9.192;2023-04-25T04:23:40;15.50;;;14.40;;
16731;SDS011;8484;50.904;9.192;2023-04-25T04:26:06;16.27;;;14.83;;
16731;SDS011;8484;50.904;9.192;2023-04-25T04:28:34;15.77;;;14.57;;
16731;SDS011;8484;50.904;9.192;2023-04-25T04:31:11;15.93;;;14.83;;
16731;SDS011;8484;50.904;9.192;2023-04-25T04:33:40;16.27;;;14.97;;
16731;SDS011;8484;50.904;9.192;2023-04-25T04:36:07;15.77;;;14.67;;
16731;SDS011;8484;50.904;9.192;2023-04-25T04:38:34;16.27;;;14.97;;
16731;SDS011;8484;50.904;9.192;2023-04-25T04:41:02;16.70;;;15.20;;
16731;SDS011;8484;50.904;9.192;2023-04-25T04:43:29;15.90;;;14.70;;
16731;SDS011;8484;50.904;9.192;2023-04-25T04:46:00;15.93;;;14.63;;
16731;SDS011;8484;50.904;9.192;2023-04-25T04:48:30;16.10;;;15.00;;
16731;SDS011;8484;50.904;9.192;2023-04-25T04:50:59;15.90;;;14.60;;
16731;SDS011;8484;50.904;9.192;2023-04-25T04:53:26;16.33;;;14.93;;
16731;SDS011;8484;50.904;9.192;2023-04-25T04:55:53;16.00;;;14.60;;
16731;SDS011;8484;50.904;9.192;2023-04-25T04:58:21;15.20;;;14.10;;
16731;SDS011;8484;50.904;9.192;2023-04-25T05:00:48;15.80;;;14.40;;
16731;SDS011;8484;50.904;9.192;2023-04-25T05:03:15;15.07;;;13.87;;
16731;SDS011;8484;50.904;9.192;2023-04-25T05:05:44;16.37;;;15.17;;
16731;SDS011;8484;50.904;9.192;2023-04-25T05:08:11;15.73;;;14.40;;
16731;SDS011;8484;50.904;9.192;2023-04-25T05:10:38;17.43;;;16.20;;
16731;SDS011;8484;50.904;9.192;2023-04-25T05:13:05;16.97;;;15.50;;
16731;SDS011;8484;50.904;9.192;2023-04-25T05:15:32;17.50;;;16.30;;
16731;SDS011;8484;50.904;9.192;2023-04-25T05:17:59;16.90;;;15.57;;
16731;SDS011;8484;50.904;9.192;2023-04-25T05:20:26;17.23;;;15.93;;
16731;SDS011;8484;50.904;9.192;2023-04-25T05:22:55;14.90;;;13.73;;
16731;SDS011;8484;50.904;9.192;2023-04-25T05:25:22;15.73;;;14.57;;
16731;SDS011;8484;50.904;9.192;2023-04-25T05:27:49;15.90;;;14.43;;
16731;SDS011;8484;50.904;9.192;2023-04-25T05:30:17;14.80;;;13.80;;
16731;SDS011;8484;50.904;9.192;2023-04-25T05:32:44;14.87;;;13.77;;
16731;SDS011;8484;50.904;9.192;2023-04-25T05:35:11;14.80;;;13.40;;
16731;SDS011;8484;50.904;9.192;2023-04-25T05:37:38;13.70;;;12.70;;
16731;SDS011;8484;50.904;9.192;2023-04-25T05:40:10;13.80;;;12.60;;
16731;SDS011;8484;50.904;9.192;2023-04-25T05:42:37;14.13;;;13.10;;
16731;SDS011;8484;50.904;9.192;2023-04-25T05:45:05;13.53;;;12.60;;
16731;SDS011;8484;50.904;9.192;2023-04-25T05:47:32;13.77;;;12.80;;
16731;SDS011;8484;50.904;9.192;2023-04-25T05:49:59;13.73;;;12.73;;
16731;SDS011;8484;50.904;9.192;2023-04-25T05:52:26;13.97;;;12.90;;
16731;SDS011;8484;50.904;9.192;2023-04-25T05:54:53;13.47;;;12.37;;
16731;SDS011;8484;50.904;9.192;2023-04-25T05:57:22;14.10;;;13.10;;
16731;SDS011;8484;50.904;9.192;2023-04-25T05:59:50;13.43;;;12.50;;
16731;SDS011;8484;50.904;9.192;2023-04-25T06:02:17;12.93;;;12.03;;
16731;SDS011;8484;50.904;9.192;2023-04-25T06:04:45;13.67;;;12.67;;
16731;SDS011;8484;50.904;9.192;2023-04-25T06:07:12;13.23;;;12.20;;
16731;SDS011;8484;50.904;9.192;2023-04-25T06:09:39;13.20;;;12.30;;
16731;SDS011;8484;50.904;9.192;2023-04-25T06:12:06;13.50;;;12.60;;
16731;SDS011;8484;50.904;9.192;2023-04-25T06:14:35;12.80;;;11.90;;
16731;SDS011;8484;50.904;9.192;2023-04-25T06:17:02;13.37;;;12.37;;
16731;SDS011;8484;50.904;9.192;2023-04-25T06:19:31;13.30;;;12.40;;
16731;SDS011;8484;50.904;9.192;2023-04-25T06:22:05;13.90;;;12.90;;
16731;SDS011;8484;50.904;9.192;2023-04-25T06:24:32;13.60;;;12.67;;
16731;SDS011;8484;50.904;9.192;2023-04-25T06:26:59;13.97;;;13.07;;
16731;SDS011;8484;50.904;9.192;2023-04-25T06:29:26;13.70;;;12.70;;
16731;SDS011;8484;50.904;9.192;2023-04-25T06:31:55;13.70;;;12.77;;
16731;SDS011;8484;50.904;9.192;2023-04-25T06:34:22;13.57;;;12.57;;
16731;SDS011;8484;50.904;9.192;2023-04-25T06:36:49;13.97;;;13.03;;
16731;SDS011;8484;50.904;9.192;2023-04-25T06:39:16;13.13;;;12.33;;
16731;SDS011;8484;50.904;9.192;2023-04-25T06:41:42;14.00;;;12.90;;
16731;SDS011;8484;50.904;9.192;2023-04-25T06:44:10;13.27;;;12.37;;
16731;SDS011;8484;50.904;9.192;2023-04-25T06:46:37;13.30;;;12.50;;
16731;SDS011;8484;50.904;9.192;2023-04-25T06:49:05;12.97;;;12.13;;
16731;SDS011;8484;50.904;9.192;2023-04-25T06:51:32;12.57;;;11.83;;
16731;SDS011;8484;50.904;9.192;2023-04-25T06:53:59;12.50;;;11.77;;
16731;SDS011;8484;50.904;9.192;2023-04-25T06:56:26;11.70;;;11.00;;
16731;SDS011;8484;50.904;9.192;2023-04-25T06:58:55;11.83;;;11.13;;
16731;SDS011;8484;50.904;9.192;2023-04-25T07:01:22;11.23;;;10.53;;
16731;SDS011;8484;50.904;9.192;2023-04-25T07:03:49;11.07;;;10.47;;
16731;SDS011;8484;50.904;9.192;2023-04-25T07:06:18;10.93;;;10.27;;
16731;SDS011;8484;50.904;9.192;2023-04-25T07:08:45;10.97;;;10.27;;
16731;SDS011;8484;50.904;9.192;2023-04-25T07:11:11;11.00;;;10.40;;
16731;SDS011;8484;50.904;9.192;2023-04-25T07:13:38;10.63;;;10.03;;
16731;SDS011;8484;50.904;9.192;2023-04-25T07:16:05;10.70;;;10.03;;
16731;SDS011;8484;50.904;9.192;2023-04-25T07:18:32;10.77;;;10.13;;
16731;SDS011;8484;50.904;9.192;2023-04-25T07:20:59;10.27;;;9.67;;
16731;SDS011;8484;50.904;9.192;2023-04-25T07:23:27;10.30;;;9.70;;
16731;SDS011;8484;50.904;9.192;2023-04-25T07:25:55;10.20;;;9.50;;
16731;SDS011;8484;50.904;9.192;2023-04-25T07:28:22;9.93;;;9.37;;
16731;SDS011;8484;50.904;9.192;2023-04-25T07:30:48;10.23;;;9.53;;
16731;SDS011;8484;50.904;9.192;2023-04-25T07:33:15;9.23;;;8.63;;
16731;SDS011;8484;50.904;9.192;2023-04-25T07:35:45;9.40;;;8.80;;
16731;SDS011;8484;50.904;9.192;2023-04-25T07:38:12;9.67;;;8.97;;
16731;SDS011;8484;50.904;9.192;2023-04-25T07:40:40;8.83;;;8.33;;
16731;SDS011;8484;50.904;9.192;2023-04-25T07:43:07;8.93;;;8.40;;
16731;SDS011;8484;50.904;9.192;2023-04-25T07:45:37;8.50;;;7.93;;
16731;SDS011;8484;50.904;9.192;2023-04-25T07:48:04;8.67;;;8.07;;
16731;SDS011;8484;50.904;9.192;2023-04-25T07:50:31;8.03;;;7.50;;
16731;SDS011;8484;50.904;9.192;2023-04-25T07:52:58;8.43;;;7.83;;
16731;SDS011;8484;50.904;9.192;2023-04-25T07:55:25;9.20;;;8.53;;
16731;SDS011;8484;50.904;9.192;2023-04-25T07:57:53;8.80;;;8.30;;
16731;SDS011;8484;50.904;9.192;2023-04-25T08:00:22;8.80;;;8.07;;
16731;SDS011;8484;50.904;9.192;2023-04-25T08:02:49;8.97;;;8.33;;
16731;SDS011;8484;50.904;9.192;2023-04-25T08:05:17;8.67;;;8.13;;
16731;SDS011;8484;50.904;9.192;2023-04-25T08:07:43;8.23;;;7.73;;
16731;SDS011;8484;50.904;9.192;2023-04-25T08:10:10;8.00;;;7.50;;
16731;SDS011;8484;50.904;9.192;2023-04-25T08:12:37;8.03;;;7.43;;
16731;SDS011;8484;50.904;9.192;2023-04-25T08:15:09;8.40;;;7.70;;
16731;SDS011;8484;50.904;9.192;2023-04-25T08:17:39;8.20;;;7.60;;
16731;SDS011;8484;50.904;9.192;2023-04-25T08:20:06;8.40;;;7.70;;
16731;SDS011;8484;50.904;9.192;2023-04-25T08:22:34;7.70;;;7.17;;
16731;SDS011;8484;50.904;9.192;2023-04-25T08:25:00;7.53;;;6.97;;
16731;SDS011;8484;50.904;9.192;2023-04-25T08:27:27;7.77;;;7.17;;
16731;SDS011;8484;50.904;9.192;2023-04-25T08:29:54;7.50;;;6.90;;
16731;SDS011;8484;50.904;9.192;2023-04-25T08:32:24;7.50;;;6.90;;
16731;SDS011;8484;50.904;9.192;2023-04-25T08:34:51;7.90;;;7.13;;
16731;SDS011;8484;50.904;9.192;2023-04-25T08:37:19;6.97;;;6.47;;
16731;SDS011;8484;50.904;9.192;2023-04-25T08:39:46;7.73;;;7.00;;
16731;SDS011;8484;50.904;9.192;2023-04-25T08:42:14;7.23;;;6.70;;
16731;SDS011;8484;50.904;9.192;2023-04-25T08:44:41;7.67;;;6.90;;
16731;SDS011;8484;50.904;9.192;2023-04-25T08:47:08;7.50;;;6.80;;
16731;SDS011;8484;50.904;9.192;2023-04-25T08:49:36;6.40;;;5.90;;
16731;SDS011;8484;50.904;9.192;2023-04-25T08:52:06;7.13;;;6.60;;
16731;SDS011;8484;50.904;9.192;2023-04-25T08:54:36;6.87;;;6.27;;
16731;SDS011;8484;50.904;9.192;2023-04-25T08:57:04;7.10;;;6.50;;
16731;SDS011;8484;50.904;9.192;2023-04-25T08:59:32;7.07;;;6.37;;
16731;SDS011;8484;50.904;9.192;2023-04-25T09:02:00;6.50;;;6.00;;
16731;SDS011;8484;50.904;9.192;2023-04-25T09:04:27;10.20;;;6.87;;
16731;SDS011;8484;50.904;9.192;2023-04-25T09:06:57;6.33;;;5.73;;
16731;SDS011;8484;50.904;9.192;2023-04-25T09:09:24;6.90;;;6.30;;
16731;SDS011;8484;50.904;9.192;2023-04-25T09:11:51;7.37;;;6.67;;
16731;SDS011;8484;50.904;9.192;2023-04-25T09:14:24;7.70;;;6.40;;
16731;SDS011;8484;50.904;9.192;2023-04-25T09:17:02;7.47;;;6.60;;
16731;SDS011;8484;50.904;9.192;2023-04-25T09:19:33;6.37;;;5.97;;
16731;SDS011;8484;50.904;9.192;2023-04-25T09:22:05;6.57;;;5.93;;
16731;SDS011;8484;50.904;9.192;2023-04-25T09:24:33;9.90;;;6.57;;
16731;SDS011;8484;50.904;9.192;2023-04-25T09:27:05;7.10;;;6.40;;
16731;SDS011;8484;50.904;9.192;2023-04-25T09:29:34;7.03;;;6.47;;
16731;SDS011;8484;50.904;9.192;2023-04-25T09:32:16;6.63;;;6.13;;
16731;SDS011;8484;50.904;9.192;2023-04-25T09:34:44;7.10;;;6.50;;
16731;SDS011;8484;50.904;9.192;2023-04-25T09:37:17;7.80;;;6.70;;
16731;SDS011;8484;50.904;9.192;2023-04-25T09:39:45;6.77;;;6.20;;
16731;SDS011;8484;50.904;9.192;2023-04-25T09:42:13;6.60;;;6.00;;
16731;SDS011;8484;50.904;9.192;2023-04-25T09:44:44;7.00;;;6.03;;
16731;SDS011;8484;50.904;9.192;2023-04-25T09:47:13;6.57;;;5.40;;
16731;SDS011;8484;50.904;9.192;2023-04-25T09:49:41;7.13;;;5.70;;
16731;SDS011;8484;50.904;9.192;2023-04-25T09:52:09;5.70;;;5.20;;
16731;SDS011;8484;50.904;9.192;2023-04-25T09:54:41;6.00;;;5.50;;
16731;SDS011;8484;50.904;9.192;2023-04-25T09:57:10;5.93;;;5.53;;
16731;SDS011;8484;50.904;9.192;2023-04-25T09:59:39;5.60;;;5.10;;
16731;SDS011;8484;50.904;9.192;2023-04-25T10:02:09;5.30;;;4.80;;
16731;SDS011;8484;50.904;9.192;2023-04-25T10:04:38;5.60;;;5.10;;
16731;SDS011;8484;50.904;9.192;2023-04-25T10:07:06;7.17;;;5.47;;
16731;SDS011;8484;50.904;9.192;2023-04-25T10:09:36;6.00;;;5.47;;
16731;SDS011;8484;50.904;9.192;2023-04-25T10:12:06;6.57;;;5.80;;
16731;SDS011;8484;50.904;9.192;2023-04-25T10:14:34;5.93;;;5.33;;
16731;SDS011;8484;50.904;9.192;2023-04-25T10:17:01;7.17;;;5.40;;
16731;SDS011;8484;50.904;9.192;2023-04-25T10:19:29;6.47;;;5.20;;
16731;SDS011;8484;50.904;9.192;2023-04-25T10:21:58;5.47;;;4.97;;
16731;SDS011;8484;50.904;9.192;2023-04-25T10:24:33;5.53;;;5.03;;
16731;SDS011;8484;50.904;9.192;2023-04-25T10:27:01;5.13;;;4.70;;
16731;SDS011;8484;50.904;9.192;2023-04-25T10:29:31;5.50;;;5.00;;
16731;SDS011;8484;50.904;9.192;2023-04-25T10:31:58;4.80;;;4.40;;
16731;SDS011;8484;50.904;9.192;2023-04-25T10:34:37;4.97;;;4.60;;
16731;SDS011;8484;50.904;9.192;2023-04-25T10:37:05;4.80;;;4.47;;
16731;SDS011;8484;50.904;9.192;2023-04-25T10:39:40;5.00;;;4.60;;
16731;SDS011;8484;50.904;9.192;2023-04-25T10:42:07;4.87;;;4.20;;
16731;SDS011;8484;50.904;9.192;2023-04-25T10:44:36;5.60;;;4.60;;
16731;SDS011;8484;50.904;9.192;2023-04-25T10:47:05;5.80;;;5.30;;
16731;SDS011;8484;50.904;9.192;2023-04-25T10:49:34;6.03;;;4.90;;
16731;SDS011;8484;50.904;9.192;2023-04-25T10:52:12;5.10;;;4.60;;
16731;SDS011;8484;50.904;9.192;2023-04-25T10:54:46;5.23;;;4.73;;
16731;SDS011;8484;50.904;9.192;2023-04-25T10:57:32;5.23;;;4.80;;
16731;SDS011;8484;50.904;9.192;2023-04-25T11:00:08;6.13;;;5.10;;
16731;SDS011;8484;50.904;9.192;2023-04-25T11:02:40;5.93;;;5.03;;
16731;SDS011;8484;50.904;9.192;2023-04-25T11:05:10;4.53;;;4.23;;
16731;SDS011;8484;50.904;9.192;2023-04-25T11:07:43;4.77;;;4.30;;
16731;SDS011;8484;50.904;9.192;2023-04-25T11:10:16;5.37;;;4.70;;
16731;SDS011;8484;50.904;9.192;2023-04-25T11:12:44;4.87;;;4.40;;
16731;SDS011;8484;50.904;9.192;2023-04-25T11:15:13;5.00;;;4.50;;
16731;SDS011;8484;50.904;9.192;2023-04-25T11:17:40;5.10;;;4.70;;
16731;SDS011;8484;50.904;9.192;2023-04-25T11:20:08;5.20;;;4.57;;
16731;SDS011;8484;50.904;9.192;2023-04-25T11:22:37;5.10;;;4.70;;
16731;SDS011;8484;50.904;9.192;2023-04-25T11:25:06;6.07;;;5.47;;
16731;SDS011;8484;50.904;9.192;2023-04-25T11:27:34;5.00;;;4.60;;
16731;SDS011;8484;50.904;9.192;2023-04-25T11:30:09;5.47;;;4.97;;
16731;SDS011;8484;50.904;9.192;2023-04-25T11:32:40;5.70;;;5.10;;
16731;SDS011;8484;50.904;9.192;2023-04-25T11:35:08;5.13;;;4.73;;
16731;SDS011;8484;50.904;9.192;2023-04-25T11:37:35;4.90;;;4.50;;
16731;SDS011;8484;50.904;9.192;2023-04-25T11:40:03;5.30;;;4.30;;
16731;SDS011;8484;50.904;9.192;2023-04-25T11:42:35;5.00;;;4.57;;
16731;SDS011;8484;50.904;9.192;2023-04-25T11:45:03;4.90;;;4.50;;
16731;SDS011;8484;50.904;9.192;2023-04-25T11:47:33;5.57;;;4.90;;
16731;SDS011;8484;50.904;9.192;2023-04-25T11:50:06;4.80;;;4.50;;
16731;SDS011;8484;50.904;9.192;2023-04-25T11:52:37;8.30;;;5.53;;
16731;SDS011;8484;50.904;9.192;2023-04-25T11:55:06;5.20;;;4.80;;
16731;SDS011;8484;50.904;9.192;2023-04-25T11:57:34;4.73;;;4.40;;
16731;SDS011;8484;50.904;9.192;2023-04-25T12:00:05;4.53;;;4.20;;
16731;SDS011;8484;50.904;9.192;2023-04-25T12:02:43;4.90;;;4.30;;
16731;SDS011;8484;50.904;9.192;2023-04-25T12:05:11;5.40;;;4.90;;
16731;SDS011;8484;50.904;9.192;2023-04-25T12:07:39;5.30;;;4.80;;
16731;SDS011;8484;50.904;9.192;2023-04-25T12:10:08;5.60;;;5.10;;
16731;SDS011;8484;50.904;9.192;2023-04-25T12:12:36;4.67;;;4.27;;
16731;SDS011;8484;50.904;9.192;2023-04-25T12:15:08;4.80;;;4.30;;
16731;SDS011;8484;50.904;9.192;2023-04-25T12:17:36;4.63;;;4.23;;
16731;SDS011;8484;50.904;9.192;2023-04-25T12:20:09;4.90;;;4.40;;
16731;SDS011;8484;50.904;9.192;2023-04-25T12:22:39;4.80;;;4.30;;
16731;SDS011;8484;50.904;9.192;2023-04-25T12:25:09;4.80;;;4.40;;
16731;SDS011;8484;50.904;9.192;2023-04-25T12:27:37;5.30;;;4.83;;
16731;SDS011;8484;50.904;9.192;2023-04-25T12:30:05;5.40;;;4.67;;
16731;SDS011;8484;50.904;9.192;2023-04-25T12:32:36;5.10;;;4.40;;
16731;SDS011;8484;50.904;9.192;2023-04-25T12:35:04;5.10;;;4.60;;
16731;SDS011;8484;50.904;9.192;2023-04-25T12:37:33;4.97;;;4.67;;
16731;SDS011;8484;50.904;9.192;2023-04-25T12:40:00;4.97;;;4.40;;
16731;SDS011;8484;50.904;9.192;2023-04-25T12:42:29;6.13;;;4.77;;
16731;SDS011;8484;50.904;9.192;2023-04-25T12:44:56;5.40;;;4.90;;
16731;SDS011;8484;50.904;9.192;2023-04-25T12:47:22;5.00;;;4.60;;
16731;SDS011;8484;50.904;9.192;2023-04-25T12:49:55;5.07;;;4.57;;
16731;SDS011;8484;50.904;9.192;2023-04-25T12:52:22;5.67;;;5.27;;
16731;SDS011;8484;50.904;9.192;2023-04-25T12:54:51;5.10;;;4.70;;
16731;SDS011;8484;50.904;9.192;2023-04-25T12:57:18;8.70;;;6.97;;
16731;SDS011;8484;50.904;9.192;2023-04-25T12:59:45;6.67;;;6.00;;
16731;SDS011;8484;50.904;9.192;2023-04-25T13:02:12;14.13;;;7.77;;
16731;SDS011;8484;50.904;9.192;2023-04-25T13:04:39;5.67;;;5.20;;
16731;SDS011;8484;50.904;9.192;2023-04-25T13:07:06;5.37;;;4.60;;
16731;SDS011;8484;50.904;9.192;2023-04-25T13:09:33;7.10;;;6.10;;
16731;SDS011;8484;50.904;9.192;2023-04-25T13:12:01;5.90;;;5.13;;
16731;SDS011;8484;50.904;9.192;2023-04-25T13:14:29;5.30;;;4.90;;
16731;SDS011;8484;50.904;9.192;2023-04-25T13:16:56;4.97;;;4.50;;
16731;SDS011;8484;50.904;9.192;2023-04-25T13:19:23;4.80;;;4.43;;
16731;SDS011;8484;50.904;9.192;2023-04-25T13:21:50;5.00;;;4.50;;
16731;SDS011;8484;50.904;9.192;2023-04-25T13:24:17;4.80;;;4.40;;
16731;SDS011;8484;50.904;9.192;2023-04-25T13:26:44;4.70;;;4.30;;
16731;SDS011;8484;50.904;9.192;2023-04-25T13:29:12;5.87;;;5.00;;
16731;SDS011;8484;50.904;9.192;2023-04-25T13:31:39;5.27;;;4.93;;
16731;SDS011;8484;50.904;9.192;2023-04-25T13:34:06;6.10;;;5.10;;
16731;SDS011;8484;50.904;9.192;2023-04-25T13:36:33;5.10;;;4.60;;
16731;SDS011;8484;50.904;9.192;2023-04-25T13:39:00;5.27;;;4.73;;
16731;SDS011;8484;50.904;9.192;2023-04-25T13:41:29;5.10;;;4.70;;
16731;SDS011;8484;50.904;9.192;2023-04-25T13:43:56;4.83;;;4.50;;
16731;SDS011;8484;50.904;9.192;2023-04-25T13:46:24;7.33;;;5.10;;
16731;SDS011;8484;50.904;9.192;2023-04-25T13:48:52;5.30;;;4.90;;
16731;SDS011;8484;50.904;9.192;2023-04-25T13:51:19;5.97;;;5.47;;
16731;SDS011;8484;50.904;9.192;2023-04-25T13:53:46;5.40;;;5.00;;
16731;SDS011;8484;50.904;9.192;2023-04-25T13:56:13;6.73;;;5.13;;
16731;SDS011;8484;50.904;9.192;2023-04-25T13:58:40;4.73;;;4.43;;
16731;SDS011;8484;50.904;9.192;2023-04-25T14:01:07;5.20;;;4.80;;
16731;SDS011;8484;50.904;9.192;2023-04-25T14:03:35;5.20;;;4.80;;
16731;SDS011;8484;50.904;9.192;2023-04-25T14:06:02;5.67;;;4.97;;
16731;SDS011;8484;50.904;9.192;2023-04-25T14:08:29;4.70;;;4.37;;
16731;SDS011;8484;50.904;9.192;2023-04-25T14:10:57;4.80;;;4.40;;
16731;SDS011;8484;50.904;9.192;2023-04-25T14:13:23;7.07;;;5.20;;
16731;SDS011;8484;50.904;9.192;2023-04-25T14:15:50;4.60;;;4.30;;
16731;SDS011;8484;50.904;9.192;2023-04-25T14:18:17;4.77;;;4.47;;
16731;SDS011;8484;50.904;9.192;2023-04-25T14:20:46;4.67;;;4.37;;
16731;SDS011;8484;50.904;9.192;2023-04-25T14:23:13;5.00;;;4.63;;
16731;SDS011;8484;50.904;9.192;2023-04-25T14:25:40;4.90;;;4.43;;
16731;SDS011;8484;50.904;9.192;2023-04-25T14:28:08;6.03;;;4.73;;
16731;SDS011;8484;50.904;9.192;2023-04-25T14:30:36;4.83;;;4.27;;
16731;SDS011;8484;50.904;9.192;2023-04-25T14:33:03;5.80;;;4.60;;
16731;SDS011;8484;50.904;9.192;2023-04-25T14:35:30;4.50;;;4.20;;
16731;SDS011;8484;50.904;9.192;2023-04-25T14:38:00;4.60;;;4.20;;
16731;SDS011;8484;50.904;9.192;2023-04-25T14:40:27;5.13;;;4.73;;
16731;SDS011;8484;50.904;9.192;2023-04-25T14:42:54;5.00;;;4.50;;
16731;SDS011;8484;50.904;9.192;2023-04-25T14:45:21;4.87;;;4.30;;
16731;SDS011;8484;50.904;9.192;2023-04-25T14:47:48;4.60;;;4.20;;
16731;SDS011;8484;50.904;9.192;2023-04-25T14:50:15;6.37;;;5.10;;
16731;SDS011;8484;50.904;9.192;2023-04-25T14:52:42;4.87;;;4.40;;